createdAt,value
2018-02-05T00:02:20.050Z,19.07
2018-02-05T00:04:47.483Z,24.47
2018-02-05T00:07:14.959Z,20.90
2018-02-05T00:09:42.399Z,26.07
2018-02-05T00:12:09.868Z,22.97
2018-02-05T00:14:37.312Z,21.17
2018-02-05T00:17:05.084Z,23.30
2018-02-05T00:19:32.543Z,23.97
2018-02-05T00:21:59.972Z,22.20
2018-02-05T00:24:27.766Z,24.17
2018-02-05T00:26:55.220Z,25.30
2018-02-05T00:29:22.652Z,25.10
2018-02-05T00:31:50.136Z,26.60
2018-02-05T00:34:17.567Z,21.83
2018-02-05T00:36:44.996Z,22.60
2018-02-05T00:39:13.209Z,24.60
2018-02-05T00:41:40.629Z,26.87
2018-02-05T00:44:08.848Z,28.40
2018-02-05T00:46:37.228Z,26.07
2018-02-05T00:49:04.670Z,27.40
2018-02-05T00:51:32.096Z,28.63
2018-02-05T00:54:00.311Z,25.67
2018-02-05T00:56:27.770Z,30.77
2018-02-05T00:58:55.181Z,28.20
2018-02-05T01:01:23.412Z,26.97
2018-02-05T01:03:50.867Z,29.83
2018-02-05T01:06:18.296Z,29.43
2018-02-05T01:08:45.985Z,29.93
2018-02-05T01:11:13.416Z,25.10
2018-02-05T01:13:40.900Z,28.50
2018-02-05T01:16:08.344Z,24.73
2018-02-05T01:18:35.792Z,28.03
2018-02-05T01:21:03.272Z,29.33
2018-02-05T01:23:30.832Z,31.00
2018-02-05T01:25:58.260Z,28.70
2018-02-05T01:28:25.752Z,31.30
2018-02-05T01:30:53.504Z,28.97
2018-02-05T01:33:20.964Z,31.27
2018-02-05T01:35:48.421Z,31.67
2018-02-05T01:38:15.884Z,29.47
2018-02-05T01:40:43.336Z,31.67
2018-02-05T01:43:10.791Z,29.03
2018-02-05T01:45:38.556Z,32.07
2018-02-05T01:48:05.993Z,31.07
2018-02-05T01:50:33.424Z,30.70
2018-02-05T01:53:01.651Z,30.80
2018-02-05T01:55:29.075Z,36.53
2018-02-05T01:57:56.559Z,33.77
2018-02-05T02:00:24.325Z,33.50
2018-02-05T02:02:51.756Z,30.60
2018-02-05T02:05:19.188Z,30.83
2018-02-05T02:07:47.412Z,31.87
2018-02-05T02:10:14.892Z,32.17
2018-02-05T02:12:42.321Z,31.97
2018-02-05T02:15:09.884Z,31.97
2018-02-05T02:17:37.321Z,29.77
2018-02-05T02:20:04.744Z,31.30
2018-02-05T02:22:32.472Z,30.50
2018-02-05T02:24:59.920Z,31.33
2018-02-05T02:27:27.352Z,32.60
2018-02-05T02:29:54.843Z,32.93
2018-02-05T02:32:22.268Z,29.30
2018-02-05T02:34:49.748Z,33.17
2018-02-05T02:37:17.514Z,28.80
2018-02-05T02:39:44.960Z,36.17
2018-02-05T02:42:12.383Z,33.90
2018-02-05T02:44:40.595Z,31.33
2018-02-05T02:47:08.060Z,32.67
2018-02-05T02:49:35.514Z,34.27
2018-02-05T02:52:02.968Z,33.33
2018-02-05T02:54:30.436Z,35.43
2018-02-05T02:56:57.864Z,35.43
2018-02-05T02:59:25.560Z,35.30
2018-02-05T03:01:53.067Z,43.47
2018-02-05T03:04:20.447Z,34.60
2018-02-05T03:06:47.880Z,33.33
2018-02-05T03:09:16.076Z,35.87
2018-02-05T03:11:43.505Z,36.83
2018-02-05T03:14:11.836Z,40.97
2018-02-05T03:16:39.283Z,37.17
2018-02-05T03:19:06.720Z,35.47
2018-02-05T03:21:34.520Z,36.07
2018-02-05T03:24:01.968Z,33.03
2018-02-05T03:26:29.399Z,36.53
2018-02-05T03:28:56.835Z,40.03
2018-02-05T03:31:25.064Z,37.80
2018-02-05T03:33:52.487Z,35.57
2018-02-05T03:36:20.288Z,36.87
2018-02-05T03:38:47.711Z,36.00
2018-02-05T03:41:15.200Z,37.83
2018-02-05T03:43:43.675Z,38.90
2018-02-05T03:46:11.104Z,42.33
2018-02-05T03:48:38.539Z,37.03
2018-02-05T03:51:07.076Z,38.00
2018-02-05T03:53:34.605Z,33.33
2018-02-05T03:56:02.036Z,37.50
2018-02-05T03:58:30.572Z,38.80
2018-02-05T04:00:58.032Z,37.50
2018-02-05T04:03:25.462Z,40.07
2018-02-05T04:05:52.901Z,40.77
2018-02-05T04:08:21.119Z,38.37
2018-02-05T04:10:48.548Z,38.90
2018-02-05T04:13:16.131Z,36.93
2018-02-05T04:15:43.588Z,38.43
2018-02-05T04:18:11.016Z,39.07
2018-02-05T04:20:38.743Z,39.07
2018-02-05T04:23:06.180Z,37.53
2018-02-05T04:25:33.620Z,33.83
2018-02-05T04:28:01.070Z,33.20
2018-02-05T04:30:28.536Z,38.20
2018-02-05T04:32:55.985Z,38.97
2018-02-05T04:35:23.656Z,38.60
2018-02-05T04:37:51.127Z,36.97
2018-02-05T04:40:18.584Z,36.90
2018-02-05T04:42:46.028Z,34.30
2018-02-05T04:45:13.479Z,36.87
2018-02-05T04:47:40.936Z,34.80
2018-02-05T04:50:08.701Z,37.30
2018-02-05T04:52:36.124Z,35.67
2018-02-05T04:55:04.316Z,37.17
2018-02-05T04:57:31.752Z,40.13
2018-02-05T04:59:59.943Z,35.50
2018-02-05T05:02:27.422Z,36.83
2018-02-05T05:04:55.124Z,40.00
2018-02-05T05:07:22.559Z,41.50
2018-02-05T05:09:50.000Z,35.30
2018-02-05T05:12:17.449Z,40.10
2018-02-05T05:14:44.875Z,37.63
2018-02-05T05:17:13.068Z,32.33
2018-02-05T05:19:40.540Z,38.10
2018-02-05T05:22:07.997Z,42.50
2018-02-05T05:24:35.424Z,38.47
2018-02-05T05:27:03.124Z,42.53
2018-02-05T05:29:30.584Z,35.63
2018-02-05T05:31:58.012Z,39.83
2018-02-05T05:34:25.496Z,35.53
2018-02-05T05:36:52.953Z,33.03
2018-02-05T05:39:20.404Z,37.67
2018-02-05T05:41:48.184Z,37.73
2018-02-05T05:44:15.605Z,35.83
2018-02-05T05:46:43.035Z,33.43
2018-02-05T05:49:11.236Z,34.97
2018-02-05T05:51:38.664Z,39.87
2018-02-05T05:54:06.894Z,37.37
2018-02-05T05:56:34.631Z,36.50
2018-02-05T05:59:02.060Z,37.30
2018-02-05T06:01:30.259Z,41.43
2018-02-05T06:03:57.692Z,42.60
2018-02-05T06:06:25.919Z,40.10
2018-02-05T06:08:53.380Z,40.17
2018-02-05T06:11:21.153Z,37.63
2018-02-05T06:13:48.592Z,39.17
2018-02-05T06:16:16.067Z,37.90
2018-02-05T06:18:43.511Z,41.97
2018-02-05T06:21:10.968Z,43.57
2018-02-05T06:23:38.396Z,47.97
2018-02-05T06:26:06.096Z,36.77
2018-02-05T06:28:33.527Z,40.50
2018-02-05T06:31:00.956Z,39.10
2018-02-05T06:33:29.480Z,42.27
2018-02-05T06:35:56.944Z,42.97
2018-02-05T06:38:24.376Z,37.60
2018-02-05T06:40:51.864Z,41.60
2018-02-05T06:43:19.305Z,40.67
2018-02-05T06:45:46.729Z,42.20
2018-02-05T06:48:15.012Z,40.27
2018-02-05T06:50:54.388Z,45.23
2018-02-05T06:53:33.792Z,41.10
2018-02-05T06:56:10.295Z,50.00
2018-02-05T06:58:37.736Z,43.13
2018-02-05T07:01:05.172Z,42.27
2018-02-05T07:03:32.660Z,41.63
2018-02-05T07:06:00.109Z,41.80
2018-02-05T07:08:27.582Z,39.37
2018-02-05T07:10:55.040Z,40.80
2018-02-05T07:13:22.800Z,42.07
2018-02-05T07:15:50.243Z,42.20
2018-02-05T07:18:17.664Z,44.13
2018-02-05T07:20:46.096Z,41.17
2018-02-05T07:23:13.550Z,42.23
2018-02-05T07:25:40.980Z,44.83
2018-02-05T07:28:08.424Z,43.93
2018-02-05T07:30:35.912Z,42.93
2018-02-05T07:33:03.350Z,42.37
2018-02-05T07:35:30.796Z,35.87
2018-02-05T07:37:58.995Z,41.80
2018-02-05T07:40:26.420Z,41.00
2018-02-05T07:42:54.720Z,45.33
2018-02-05T07:45:22.144Z,41.60
2018-02-05T07:47:50.364Z,40.03
2018-02-05T07:50:18.137Z,37.30
2018-02-05T07:52:45.582Z,42.47
2018-02-05T07:55:12.994Z,47.67
2018-02-05T07:57:41.199Z,43.87
2018-02-05T08:00:08.625Z,47.70
2018-02-05T08:02:36.855Z,41.73
2018-02-05T08:05:04.623Z,42.63
2018-02-05T08:07:32.077Z,42.63
2018-02-05T08:09:59.522Z,46.20
2018-02-05T08:12:26.993Z,44.37
2018-02-05T08:14:54.441Z,43.40
2018-02-05T08:17:21.878Z,37.77
2018-02-05T08:19:49.320Z,36.03
2018-02-05T08:22:17.516Z,41.80
2018-02-05T08:24:44.994Z,37.37
2018-02-05T08:27:12.764Z,42.43
2018-02-05T08:29:40.216Z,40.17
2018-02-05T08:32:07.766Z,44.70
2018-02-05T08:34:35.233Z,43.40
2018-02-05T08:37:02.666Z,43.37
2018-02-05T08:39:30.090Z,43.67
2018-02-05T08:41:58.310Z,41.03
2018-02-05T08:44:25.743Z,37.23
2018-02-05T08:46:54.044Z,38.77
2018-02-05T08:49:21.495Z,35.57
2018-02-05T08:51:49.778Z,34.47
2018-02-05T08:54:17.242Z,34.80
2018-02-05T08:56:45.007Z,39.03
2018-02-05T08:59:12.464Z,39.10
2018-02-05T09:01:39.914Z,40.93
2018-02-05T09:04:07.702Z,34.00
2018-02-05T09:06:35.124Z,36.50
2018-02-05T09:09:02.592Z,33.93
2018-02-05T09:11:30.036Z,36.37
2018-02-05T09:13:57.524Z,37.43
2018-02-05T09:16:24.968Z,32.77
2018-02-05T09:18:52.735Z,35.47
2018-02-05T09:21:20.168Z,31.83
2018-02-05T09:23:47.653Z,29.90
2018-02-05T09:26:15.420Z,31.33
2018-02-05T09:28:42.998Z,30.73
2018-02-05T09:31:10.380Z,35.73
2018-02-05T09:33:38.608Z,32.33
2018-02-05T09:36:06.044Z,30.07
2018-02-05T09:38:33.472Z,27.93
2018-02-05T09:41:01.804Z,27.23
2018-02-05T09:43:29.356Z,31.10
2018-02-05T09:45:56.760Z,28.10
2018-02-05T09:48:24.988Z,31.20
2018-02-05T09:50:52.489Z,29.60
2018-02-05T09:53:19.897Z,29.87
2018-02-05T09:55:47.357Z,32.07
2018-02-05T09:58:14.816Z,32.97
2018-02-05T10:00:42.235Z,30.40
2018-02-05T10:03:10.752Z,29.90
2018-02-05T10:05:38.184Z,28.17
2018-02-05T10:08:05.616Z,35.20
2018-02-05T10:10:34.210Z,31.13
2018-02-05T10:13:02.405Z,28.27
2018-02-05T10:15:29.839Z,29.57
2018-02-05T10:17:58.097Z,30.13
2018-02-05T10:20:25.520Z,32.93
2018-02-05T10:22:53.068Z,29.60
2018-02-05T10:25:20.536Z,31.93
2018-02-05T10:27:48.088Z,32.93
2018-02-05T10:30:15.546Z,30.70
2018-02-05T10:32:43.322Z,33.63
2018-02-05T10:35:10.796Z,28.37
2018-02-05T10:37:38.225Z,28.17
2018-02-05T10:40:05.998Z,28.97
2018-02-05T10:42:33.428Z,30.20
2018-02-05T10:45:00.856Z,30.53
2018-02-05T10:47:29.074Z,30.07
2018-02-05T10:49:56.540Z,29.73
2018-02-05T10:52:24.000Z,28.73
2018-02-05T10:54:51.564Z,30.83
2018-02-05T10:57:19.008Z,30.17
2018-02-05T10:59:46.457Z,27.93
2018-02-05T11:02:14.239Z,25.13
2018-02-05T11:04:41.664Z,25.73
2018-02-05T11:07:09.106Z,26.90
2018-02-05T11:09:37.319Z,27.70
2018-02-05T11:12:04.748Z,25.70
2018-02-05T11:14:32.257Z,31.23
2018-02-05T11:17:00.008Z,26.77
2018-02-05T11:19:27.447Z,31.17
2018-02-05T11:21:54.892Z,28.83
2018-02-05T11:24:22.348Z,29.33
2018-02-05T11:26:49.780Z,30.77
2018-02-05T11:29:17.996Z,30.43
2018-02-05T11:31:45.665Z,28.73
2018-02-05T11:34:13.092Z,24.97
2018-02-05T11:36:40.521Z,27.07
2018-02-05T11:39:08.252Z,29.07
2018-02-05T11:41:35.672Z,29.97
2018-02-05T11:44:03.253Z,26.93
2018-02-05T11:46:30.948Z,27.70
2018-02-05T11:48:58.405Z,31.37
2018-02-05T11:51:25.809Z,27.03
2018-02-05T11:53:53.294Z,31.43
2018-02-05T11:56:20.728Z,27.20
2018-02-05T11:58:48.208Z,27.83
2018-02-05T12:01:15.652Z,23.83
2018-02-05T12:03:43.848Z,26.43
2018-02-05T12:06:11.433Z,26.90
2018-02-05T12:08:38.892Z,29.00
2018-02-05T12:11:06.326Z,27.97
2018-02-05T12:13:33.808Z,24.83
2018-02-05T12:16:01.572Z,24.87
2018-02-05T12:18:29.000Z,25.33
2018-02-05T12:20:56.448Z,25.00
2018-02-05T12:23:24.668Z,27.33
2018-02-05T12:25:52.096Z,24.20
2018-02-05T12:28:19.591Z,26.90
2018-02-05T12:30:47.344Z,28.93
2018-02-05T12:33:14.790Z,25.23
2018-02-05T12:35:42.216Z,29.73
2018-02-05T12:38:10.422Z,30.23
2018-02-05T12:40:37.848Z,27.80
2018-02-05T12:43:06.076Z,27.43
2018-02-05T12:45:33.832Z,29.07
2018-02-05T12:48:01.260Z,25.40
2018-02-05T12:50:28.690Z,23.67
2018-02-05T12:52:57.132Z,30.07
2018-02-05T12:55:24.575Z,24.87
2018-02-05T12:57:52.008Z,26.03
2018-02-05T13:00:25.193Z,25.73
2018-02-05T13:02:58.364Z,25.13
2018-02-05T13:05:26.582Z,24.17
2018-02-05T13:07:54.048Z,23.23
2018-02-05T13:10:21.484Z,25.93
2018-02-05T13:12:48.956Z,27.47
2018-02-05T13:15:16.378Z,25.80
2018-02-05T13:17:44.572Z,24.77
2018-02-05T13:20:12.368Z,23.87
2018-02-05T13:22:39.816Z,24.00
2018-02-05T13:25:07.248Z,24.60
2018-02-05T13:27:35.036Z,24.80
2018-02-05T13:30:02.492Z,21.17
2018-02-05T13:32:29.917Z,22.93
2018-02-05T13:34:58.432Z,24.40
2018-02-05T13:37:26.708Z,19.90
2018-02-05T13:39:54.496Z,25.00
2018-02-05T13:42:22.028Z,24.27
2018-02-05T13:44:49.488Z,24.97
2018-02-05T13:47:16.924Z,28.17
2018-02-05T13:49:44.424Z,26.93
2018-02-05T13:52:11.964Z,26.43
2018-02-05T13:54:39.392Z,25.27
2018-02-05T13:57:06.958Z,27.43
2018-02-05T13:59:34.438Z,25.83
2018-02-05T14:02:01.896Z,23.17
2018-02-05T14:04:29.753Z,24.47
2018-02-05T14:06:57.164Z,23.93
2018-02-05T14:09:24.593Z,27.57
2018-02-05T14:11:52.336Z,24.57
2018-02-05T14:14:19.768Z,27.30
2018-02-05T14:16:47.196Z,24.50
2018-02-05T14:19:15.400Z,21.87
2018-02-05T14:21:42.996Z,25.90
2018-02-05T14:24:10.536Z,31.83
2018-02-05T14:26:37.980Z,25.53
2018-02-05T14:29:05.472Z,27.23
2018-02-05T14:31:32.888Z,25.83
2018-02-05T14:34:00.385Z,24.43
2018-02-05T14:36:27.828Z,19.97
2018-02-05T14:38:55.302Z,22.80
2018-02-05T14:41:22.716Z,19.87
2018-02-05T14:43:50.148Z,20.17
2018-02-05T14:46:18.355Z,22.33
2018-02-05T14:48:46.064Z,21.00
2018-02-05T14:51:13.596Z,24.10
2018-02-05T14:53:41.079Z,23.60
2018-02-05T14:56:08.829Z,20.90
2018-02-05T14:58:36.313Z,23.50
2018-02-05T15:01:04.545Z,24.30
2018-02-05T15:03:31.988Z,20.03
2018-02-05T15:05:59.420Z,25.57
2018-02-05T15:08:26.905Z,27.53
2018-02-05T15:10:54.340Z,28.57
2018-02-05T15:13:21.894Z,29.03
2018-02-05T15:15:49.467Z,27.20
2018-02-05T15:18:17.236Z,27.83
2018-02-05T15:20:44.716Z,30.73
2018-02-05T15:23:12.237Z,27.67
2018-02-05T15:25:39.907Z,24.83
2018-02-05T15:28:07.341Z,30.77
2018-02-05T15:30:34.824Z,30.30
2018-02-05T15:33:02.584Z,27.03
2018-02-05T15:35:30.140Z,26.47
2018-02-05T15:37:57.601Z,29.93
2018-02-05T15:40:25.461Z,28.73
2018-02-05T15:42:52.947Z,31.57
2018-02-05T15:45:20.682Z,30.93
2018-02-05T15:47:48.400Z,32.17
2018-02-05T15:50:16.640Z,29.83
2018-02-05T15:52:44.081Z,28.23
2018-02-05T15:55:11.850Z,30.83
2018-02-05T15:57:39.292Z,28.13
2018-02-05T16:00:06.712Z,29.17
2018-02-05T16:02:34.932Z,26.53
2018-02-05T16:05:02.499Z,28.40
2018-02-05T16:07:29.908Z,32.17
2018-02-05T16:09:58.119Z,26.90
2018-02-05T16:12:25.583Z,27.43
2018-02-05T16:14:53.242Z,26.90
2018-02-05T16:17:21.013Z,25.93
2018-02-05T16:19:48.468Z,29.77
2018-02-05T16:22:15.904Z,32.17
2018-02-05T16:24:43.393Z,33.03
2018-02-05T16:27:10.820Z,29.50
2018-02-05T16:29:38.244Z,25.87
2018-02-05T16:32:06.448Z,29.10
2018-02-05T16:34:33.893Z,31.43
2018-02-05T16:37:02.128Z,29.63
2018-02-05T16:39:29.800Z,33.83
2018-02-05T16:41:57.320Z,32.27
2018-02-05T16:44:24.760Z,33.13
2018-02-05T16:46:52.424Z,31.83
2018-02-05T16:49:19.852Z,35.63
2018-02-05T16:51:48.076Z,38.13
2018-02-05T16:54:15.729Z,36.67
2018-02-05T16:56:43.128Z,33.50
2018-02-05T16:59:10.572Z,39.10
2018-02-05T17:01:38.104Z,36.83
2018-02-05T17:04:05.544Z,34.67
2018-02-05T17:06:32.976Z,39.63
2018-02-05T17:09:01.504Z,34.40
2018-02-05T17:11:28.932Z,35.37
2018-02-05T17:13:56.417Z,36.87
2018-02-05T17:16:24.227Z,37.47
2018-02-05T17:18:51.653Z,41.47
2018-02-05T17:21:19.195Z,34.23
2018-02-05T17:23:46.656Z,35.90
2018-02-05T17:26:14.156Z,34.33
2018-02-05T17:28:41.580Z,36.90
2018-02-05T17:31:09.134Z,35.30
2018-02-05T17:33:36.579Z,34.80
2018-02-05T17:36:04.044Z,31.10
2018-02-05T17:38:31.597Z,37.63
2018-02-05T17:40:59.000Z,36.97
2018-02-05T17:43:26.435Z,38.50
2018-02-05T17:45:54.272Z,39.20
2018-02-05T17:48:21.740Z,34.17
2018-02-05T17:50:49.170Z,37.60
2018-02-05T17:53:16.646Z,35.07
2018-02-05T17:55:44.052Z,35.47
2018-02-05T17:58:11.665Z,40.87
2018-02-05T18:00:39.340Z,37.77
2018-02-05T18:03:06.768Z,37.63
2018-02-05T18:05:34.208Z,39.13
2018-02-05T18:08:02.825Z,38.93
2018-02-05T18:10:30.232Z,41.58
2018-02-05T18:12:57.671Z,35.43
2018-02-05T18:15:25.409Z,38.63
2018-02-05T18:17:52.851Z,39.67
2018-02-05T18:20:20.275Z,39.07
2018-02-05T18:22:48.901Z,34.53
2018-02-05T18:25:16.363Z,37.67
2018-02-05T18:27:43.815Z,39.23
2018-02-05T18:30:11.585Z,40.87
2018-02-05T18:32:39.045Z,37.37
2018-02-05T18:35:06.500Z,44.57
2018-02-05T18:37:34.270Z,41.60
2018-02-05T18:40:01.684Z,39.60
2018-02-05T18:42:29.991Z,43.87
2018-02-05T18:44:57.404Z,38.33
2018-02-05T18:47:25.608Z,39.37
2018-02-05T18:49:53.100Z,39.53
2018-02-05T18:52:20.661Z,42.70
2018-02-05T18:54:48.095Z,38.07
2018-02-05T18:57:15.584Z,39.77
2018-02-05T18:59:43.184Z,48.77
2018-02-05T19:02:21.164Z,37.83
2018-02-05T19:04:48.828Z,44.80
2018-02-05T19:07:16.368Z,40.40
2018-02-05T19:09:43.910Z,46.00
2018-02-05T19:12:11.724Z,37.67
2018-02-05T19:14:39.924Z,45.10
2018-02-05T19:17:07.405Z,44.23
2018-02-05T19:19:35.271Z,44.20
2018-02-05T19:22:02.676Z,41.10
2018-02-05T19:24:30.871Z,44.03
2018-02-05T19:26:58.674Z,44.07
2018-02-05T19:29:26.217Z,45.73
2018-02-05T19:31:53.624Z,40.83
2018-02-05T19:34:21.141Z,41.73
2018-02-05T19:36:48.582Z,45.40
2018-02-05T19:39:16.000Z,45.47
2018-02-05T19:41:44.537Z,39.97
2018-02-05T19:44:11.988Z,48.50
2018-02-05T19:46:39.420Z,43.57
2018-02-05T19:49:06.857Z,42.90
2018-02-05T19:51:35.083Z,41.97
2018-02-05T19:54:02.512Z,41.57
2018-02-05T19:56:30.208Z,42.80
2018-02-05T19:58:57.635Z,43.77
2018-02-05T20:01:25.296Z,41.33
2018-02-05T20:03:52.996Z,43.03
2018-02-05T20:06:20.428Z,46.57
2018-02-05T20:08:47.870Z,39.23
2018-02-05T20:11:15.364Z,41.03
2018-02-05T20:13:42.810Z,44.50
2018-02-05T20:16:10.233Z,47.40
2018-02-05T20:18:38.582Z,48.60
2018-02-05T20:21:06.800Z,38.83
2018-02-05T20:23:34.234Z,38.77
2018-02-05T20:26:02.560Z,41.50
2018-02-05T20:28:29.997Z,45.47
2018-02-05T20:30:57.428Z,43.67
2018-02-05T20:33:26.044Z,42.20
2018-02-05T20:35:53.457Z,43.10
2018-02-05T20:38:21.657Z,56.07
2018-02-05T20:40:49.488Z,50.13
2018-02-05T20:43:16.925Z,43.93
2018-02-05T20:45:44.356Z,45.60
2018-02-05T20:48:12.128Z,42.00
2018-02-05T20:50:39.587Z,47.73
2018-02-05T20:53:07.031Z,44.40
2018-02-05T20:55:34.712Z,48.40
2018-02-05T20:58:02.169Z,45.40
2018-02-05T21:00:29.711Z,48.93
2018-02-05T21:02:57.477Z,47.33
2018-02-05T21:05:24.948Z,45.10
2018-02-05T21:07:52.391Z,40.27
2018-02-05T21:10:19.832Z,47.53
2018-02-05T21:12:47.269Z,45.47
2018-02-05T21:15:15.480Z,44.33
2018-02-05T21:17:43.463Z,49.00
2018-02-05T21:20:10.911Z,49.70
2018-02-05T21:22:38.343Z,47.57
2018-02-05T21:25:06.132Z,48.90
2018-02-05T21:27:33.588Z,47.47
2018-02-05T21:30:01.056Z,48.57
2018-02-05T21:32:28.500Z,49.57
2018-02-05T21:34:55.949Z,50.00
2018-02-05T21:37:23.384Z,43.53
2018-02-05T21:39:51.660Z,45.87
2018-02-05T21:42:19.099Z,45.83
2018-02-05T21:44:47.322Z,46.00
2018-02-05T21:47:15.116Z,41.23
2018-02-05T21:49:42.560Z,45.63
2018-02-05T21:52:09.996Z,45.10
2018-02-05T21:54:37.496Z,46.70
2018-02-05T21:57:04.925Z,42.97
2018-02-05T21:59:32.371Z,43.33
2018-02-05T22:02:00.140Z,48.10
2018-02-05T22:04:27.574Z,48.37
2018-02-05T22:06:55.008Z,45.53
2018-02-05T22:09:23.260Z,42.80
2018-02-05T22:11:50.700Z,49.93
2018-02-05T22:14:18.144Z,47.03
2018-02-05T22:16:45.595Z,51.27
2018-02-05T22:19:13.056Z,44.60
2018-02-05T22:21:40.492Z,50.53
2018-02-05T22:24:07.932Z,48.83
2018-02-05T22:26:36.136Z,46.80
2018-02-05T22:29:03.566Z,45.63
2018-02-05T22:31:31.779Z,46.47
2018-02-05T22:33:59.226Z,46.37
2018-02-05T22:36:26.652Z,52.83
2018-02-05T22:38:54.863Z,52.33
2018-02-05T22:41:22.304Z,52.70
2018-02-05T22:43:50.628Z,55.43
2018-02-05T22:46:18.194Z,49.60
2018-02-05T22:48:45.763Z,53.33
2018-02-05T22:51:13.172Z,46.47
2018-02-05T22:53:40.993Z,43.73
2018-02-05T22:56:08.396Z,47.57
2018-02-05T22:58:35.846Z,51.03
2018-02-05T23:01:03.621Z,50.90
2018-02-05T23:03:31.052Z,48.73
2018-02-05T23:05:58.479Z,48.57
2018-02-05T23:08:26.708Z,46.03
2018-02-05T23:10:54.169Z,49.97
2018-02-05T23:13:21.612Z,45.33
2018-02-05T23:15:49.480Z,49.37
2018-02-05T23:18:16.912Z,51.40
2018-02-05T23:20:44.400Z,54.80
2018-02-05T23:23:11.850Z,45.73
2018-02-05T23:25:39.320Z,45.07
2018-02-05T23:28:06.752Z,49.90
2018-02-05T23:30:34.238Z,55.53
2018-02-05T23:33:01.660Z,49.27
2018-02-05T23:35:29.254Z,45.07
2018-02-05T23:37:57.035Z,53.93
2018-02-05T23:40:24.576Z,57.77
2018-02-05T23:42:52.004Z,55.10
2018-02-05T23:45:19.496Z,58.10
2018-02-05T23:47:46.975Z,50.30
2018-02-05T23:50:14.495Z,53.17
2018-02-05T23:52:41.916Z,51.30
2018-02-05T23:55:10.138Z,48.10
2018-02-05T23:57:37.599Z,50.83
